Bandar Lengeh Airport

Airport
ICAO code: 
OIBL
IATA Code: 
BDH
Summary
ICAO Region: 
MID
Territory: 
Location: 
Sadaf, Bandar Lengeh
Serving: 
Bandar Lengeh
Elevation: 
67 ft
Coordinates: 
Aerial View: 
26° 31' 52.636" N, 54° 49' 39.905" E
Metar
Observation
OIBL 260800Z 20008KT 3000 HZ NSC 35/29 Q0997
Station
Bandar Lengeh
Date/Time
2022-06-26 08:00:00
Wind direction
200°
Wind speed
08 kts
Lowest cloud amount
nil significant cloud
Temperature
35°C
Dew point
29°C
Humidity
71%
QNH
997 hPa
Weather condition
n/a

Airport 6km southwest of Bandar Length, Iran.

Climatology

Hot Desert climate (Köppen climate classification BWh).

Runways

Designator Length Width Surface Rops
8/26 2500 45 ASP No/No
Airport map: 
Aerial View: 

SKYbrary Partners:

Safety knowledge contributed by: